Terminal Aerodrome Forecast
Issued by NWS Raleigh/Durham, NC

Current Version | Previous Version | Text Only | Print | Product List | Glossary On
Versions: 1 2 3 4 5 6 7 8 9 10 11 12 13 14 15 16 17 18 19 20 21 22 23 24 25 26 27 28 29 30 31 32 33 34 35 36 37 38 39 40 41 42 43 44 45 46 47 48 49 50
000 FTUS42 KRAH 051810 AAA TAFRDU TAF AMD KRDU 051810Z 0518/0618 20009KT P6SM VCSH SCT040 SCT150 TEMPO 0518/0519 3SM -SHRA BR SCT018 BKN026 FM051900 21008KT P6SM VCTS SCT030 BKN045CB TEMPO 0519/0522 VRB18G30KT 3SM -TSRA BR SCT016 BKN030CB FM061000 20006KT 6SM BR SCT006 TEMPO 0611/0613 5SM BR BKN006 FM061600 20008KT P6SM SCT025=

USA.gov is the U.S. government's official web portal to all federal, state and local government web resources and services.